WARR/SUB METAR and TAF weather

Enter ICAO airport designator
Station Type Date Time Source
WARR METAR 2019/04/23 02:00 UTC NOAA

WARR 230200Z 12010KT 9999 FEW020 31/24 Q1008 NOSIG


Station Type Date Time Source
WARR Decoded METAR 2019/04/23 02:00 UTC NOAA

Station name not available
Apr 22, 2019 - 10:00 PM EDT / 2019.04.23 0200 UTC
Wind: from the ESE (120 degrees) at 12 MPH (10 KT):0
Visibility: greater than 7 mile(s):0
Sky conditions: mostly clear
Temperature: 87 F (31 C)
Heat index: 95.7 F (35.4 C):1
Dew Point: 75 F (24 C)
Relative Humidity: 66%
Pressure (altimeter): 29.77 in. Hg (1008 hPa)
ob: WARR 230200Z 12010KT 9999 FEW020 31/24 Q1008 NOSIG
cycle: 2

Station Type Date Time Source
WARR TAF 2019/04/22 18:09 UTC NOAA

TAF WARR 221700Z 2218/2318 10005KT 6000 FEW020
TEMPO 2220/2300 5000 HZ
BECMG 2300/2302 09010KT 9999 NSW
BECMG 2312/2314 10005KT 6000

Example: see airport list